createdAt,value
2017-12-19T00:00:03.338Z,29.37
2017-12-19T00:00:37.006Z,27.48
2017-12-19T00:01:10.375Z,25.70
2017-12-19T00:01:44.039Z,31.77
2017-12-19T00:02:17.397Z,28.08
2017-12-19T00:02:51.080Z,30.58
2017-12-19T00:03:24.443Z,28.02
2017-12-19T00:03:58.118Z,29.45
2017-12-19T00:04:31.792Z,28.58
2017-12-19T00:05:05.890Z,28.25
2017-12-19T00:05:40.323Z,26.77
2017-12-19T00:06:13.665Z,29.80
2017-12-19T00:06:47.010Z,25.58
2017-12-19T00:07:20.390Z,26.30
2017-12-19T00:07:54.079Z,29.25
2017-12-19T00:08:27.738Z,26.58
2017-12-19T00:09:01.410Z,25.65
2017-12-19T00:09:36.227Z,31.23
2017-12-19T00:10:10.018Z,28.42
2017-12-19T00:10:43.832Z,33.22
2017-12-19T00:11:17.498Z,29.02
2017-12-19T00:11:51.995Z,33.88
2017-12-19T00:12:26.099Z,31.12
2017-12-19T00:13:00.225Z,27.98
2017-12-19T00:13:33.919Z,31.75
2017-12-19T00:14:07.637Z,31.00
2017-12-19T00:14:41.343Z,30.85
2017-12-19T00:15:15.106Z,28.48
2017-12-19T00:15:48.777Z,31.75
2017-12-19T00:16:22.539Z,33.05
2017-12-19T00:16:56.220Z,29.50
2017-12-19T00:17:29.574Z,30.62
2017-12-19T00:18:02.910Z,26.35
2017-12-19T00:18:37.353Z,26.83
2017-12-19T00:19:11.043Z,33.10
2017-12-19T00:19:44.440Z,32.15
2017-12-19T00:20:18.117Z,31.55
2017-12-19T00:20:51.130Z,31.52
2017-12-19T00:21:24.130Z,28.98
2017-12-19T00:21:57.897Z,29.12
2017-12-19T00:22:39.690Z,29.73
2017-12-19T00:23:13.282Z,31.40
2017-12-19T00:23:47.076Z,31.75
2017-12-19T00:24:20.914Z,30.70
2017-12-19T00:24:54.254Z,30.15
2017-12-19T00:25:28.026Z,30.17
2017-12-19T00:26:01.028Z,30.12
2017-12-19T00:26:34.056Z,28.60
2017-12-19T00:27:07.388Z,31.27
2017-12-19T00:27:40.775Z,34.47
2017-12-19T00:28:14.454Z,32.53
2017-12-19T00:28:47.871Z,35.05
2017-12-19T00:29:21.553Z,31.33
2017-12-19T00:29:55.291Z,28.65
2017-12-19T00:30:29.410Z,32.50
2017-12-19T00:31:02.765Z,36.17
2017-12-19T00:31:36.908Z,30.10
2017-12-19T00:32:10.592Z,36.25
2017-12-19T00:32:44.271Z,33.65
2017-12-19T00:33:18.719Z,34.88
2017-12-19T00:33:52.067Z,34.08
2017-12-19T00:34:26.166Z,32.72
2017-12-19T00:34:59.755Z,35.10
2017-12-19T00:35:33.443Z,32.92
2017-12-19T00:36:07.538Z,38.03
2017-12-19T00:36:41.217Z,34.13
2017-12-19T00:37:15.425Z,36.45
2017-12-19T00:37:49.867Z,35.35
2017-12-19T00:38:23.288Z,30.52
2017-12-19T00:38:57.126Z,36.13
2017-12-19T00:39:30.834Z,40.17
2017-12-19T00:40:03.880Z,37.22
2017-12-19T00:40:37.989Z,34.40
2017-12-19T00:41:11.330Z,31.83
2017-12-19T00:41:45.015Z,32.00
2017-12-19T00:42:18.367Z,31.87
2017-12-19T00:42:52.051Z,35.72
2017-12-19T00:43:25.763Z,33.88
2017-12-19T00:43:59.455Z,33.65
2017-12-19T00:44:33.127Z,36.20
2017-12-19T00:45:06.503Z,34.58
2017-12-19T00:45:40.166Z,32.03
2017-12-19T00:46:13.840Z,34.65
2017-12-19T00:46:48.269Z,33.95
2017-12-19T00:47:21.947Z,35.05
2017-12-19T00:47:56.434Z,33.13
2017-12-19T00:48:30.892Z,32.45
2017-12-19T00:49:04.557Z,39.08
2017-12-19T00:49:38.690Z,34.65
2017-12-19T00:50:12.271Z,32.60
2017-12-19T00:50:45.716Z,31.48
2017-12-19T00:51:20.163Z,36.80
2017-12-19T00:51:53.830Z,36.83
2017-12-19T00:52:27.170Z,37.45
2017-12-19T00:53:00.830Z,39.30
2017-12-19T00:53:34.518Z,37.03
2017-12-19T00:54:08.185Z,36.58
2017-12-19T00:54:41.515Z,33.38
2017-12-19T00:55:15.542Z,34.20
2017-12-19T00:55:49.987Z,31.15
2017-12-19T00:56:23.677Z,42.00
2017-12-19T00:56:56.684Z,35.00
2017-12-19T00:57:30.251Z,37.53
2017-12-19T00:58:03.253Z,38.35
2017-12-19T00:58:36.293Z,33.90
2017-12-19T00:59:09.637Z,40.15
2017-12-19T00:59:44.076Z,36.60
2017-12-19T01:00:17.782Z,35.50
2017-12-19T01:00:51.461Z,35.33
2017-12-19T01:01:25.140Z,33.70
2017-12-19T01:01:58.799Z,35.58
2017-12-19T01:02:33.234Z,35.47
2017-12-19T01:03:06.954Z,41.28
2017-12-19T01:03:40.308Z,33.70
2017-12-19T01:04:14.010Z,39.47
2017-12-19T01:04:47.875Z,42.75
2017-12-19T01:05:21.848Z,32.65
2017-12-19T01:05:55.622Z,37.55
2017-12-19T01:06:29.278Z,35.30
2017-12-19T01:07:02.730Z,35.95
2017-12-19T01:07:37.163Z,35.40
2017-12-19T01:08:10.483Z,33.38
2017-12-19T01:08:44.142Z,35.42
2017-12-19T01:09:17.798Z,39.97
2017-12-19T01:09:52.238Z,36.85
2017-12-19T01:10:26.325Z,38.15
2017-12-19T01:10:59.658Z,38.05
2017-12-19T01:11:33.325Z,34.20
2017-12-19T01:12:07.020Z,37.70
2017-12-19T01:12:40.721Z,35.60
2017-12-19T01:13:14.375Z,38.92
2017-12-19T01:13:47.733Z,39.70
2017-12-19T01:14:22.183Z,42.13
2017-12-19T01:14:55.871Z,36.40
2017-12-19T01:15:29.597Z,35.50
2017-12-19T01:16:04.042Z,41.40
2017-12-19T01:16:37.763Z,34.97
2017-12-19T01:17:12.371Z,39.28
2017-12-19T01:17:45.759Z,36.40
2017-12-19T01:18:19.110Z,36.28
2017-12-19T01:18:52.840Z,37.08
2017-12-19T01:19:27.418Z,40.72
2017-12-19T01:20:01.142Z,36.45
2017-12-19T01:20:34.839Z,37.28
2017-12-19T01:21:08.518Z,41.45
2017-12-19T01:21:42.187Z,52.75
2017-12-19T01:22:15.891Z,38.80
2017-12-19T01:22:49.562Z,37.47
2017-12-19T01:23:23.217Z,42.78
2017-12-19T01:23:57.653Z,43.85
2017-12-19T01:24:31.318Z,38.90
2017-12-19T01:25:05.755Z,34.22
2017-12-19T01:25:39.703Z,39.92
2017-12-19T01:26:14.133Z,46.40
2017-12-19T01:26:47.829Z,37.60
2017-12-19T01:27:21.499Z,37.28
2017-12-19T01:27:55.934Z,37.28
2017-12-19T01:28:29.589Z,43.55
2017-12-19T01:29:04.013Z,44.38
2017-12-19T01:29:38.453Z,35.67
2017-12-19T01:30:12.147Z,37.25
2017-12-19T01:30:45.854Z,36.47
2017-12-19T01:31:19.533Z,37.33
2017-12-19T01:31:53.224Z,43.30
2017-12-19T01:32:26.912Z,36.60
2017-12-19T01:33:00.577Z,36.75
2017-12-19T01:33:34.246Z,38.63
2017-12-19T01:34:07.921Z,38.15
2017-12-19T01:34:41.599Z,40.35
2017-12-19T01:35:15.270Z,43.38
2017-12-19T01:35:48.967Z,38.88
2017-12-19T01:36:24.058Z,40.92
2017-12-19T01:36:57.734Z,40.90
2017-12-19T01:37:31.414Z,41.95
2017-12-19T01:38:05.096Z,38.83
2017-12-19T01:38:38.770Z,39.33
2017-12-19T01:39:13.211Z,42.15
2017-12-19T01:39:46.908Z,39.70
2017-12-19T01:40:20.465Z,39.50
2017-12-19T01:40:54.932Z,40.00
2017-12-19T01:41:28.610Z,38.08
2017-12-19T01:42:02.301Z,37.17
2017-12-19T01:42:35.973Z,40.95
2017-12-19T01:43:09.651Z,43.95
2017-12-19T01:43:43.333Z,41.35
2017-12-19T01:44:17.019Z,37.25
2017-12-19T01:44:50.851Z,37.95
2017-12-19T01:45:24.520Z,37.30
2017-12-19T01:45:58.594Z,40.40
2017-12-19T01:46:33.022Z,35.42
2017-12-19T01:47:07.475Z,40.05
2017-12-19T01:47:41.154Z,44.08
2017-12-19T01:48:14.813Z,43.75
2017-12-19T01:48:48.471Z,40.72
2017-12-19T01:49:22.898Z,39.75
2017-12-19T01:49:56.597Z,41.00
2017-12-19T01:50:30.262Z,39.50
2017-12-19T01:51:04.409Z,39.33
2017-12-19T01:51:38.113Z,38.60
2017-12-19T01:52:11.795Z,41.85
2017-12-19T01:52:45.483Z,37.08
2017-12-19T01:53:19.171Z,41.22
2017-12-19T01:53:52.839Z,43.50
2017-12-19T01:54:26.524Z,39.00
2017-12-19T01:55:00.214Z,35.45
2017-12-19T01:55:33.892Z,39.25
2017-12-19T01:56:08.032Z,35.45
2017-12-19T01:56:42.645Z,35.67
2017-12-19T01:57:16.342Z,40.70
2017-12-19T01:57:50.019Z,42.13
2017-12-19T01:58:23.690Z,40.92
2017-12-19T01:58:57.364Z,43.33
2017-12-19T01:59:31.046Z,41.60
2017-12-19T02:00:04.397Z,41.70
2017-12-19T02:00:37.732Z,43.33
2017-12-19T02:01:11.454Z,42.90
2017-12-19T02:01:45.146Z,39.17
2017-12-19T02:02:18.872Z,41.05
2017-12-19T02:02:53.313Z,39.45
2017-12-19T02:03:26.982Z,44.17
2017-12-19T02:04:00.659Z,41.88
2017-12-19T02:04:35.099Z,42.28
2017-12-19T02:05:08.774Z,42.30
2017-12-19T02:05:42.445Z,42.55
2017-12-19T02:06:17.173Z,44.05
2017-12-19T02:06:50.844Z,38.33
2017-12-19T02:07:25.278Z,37.80
2017-12-19T02:07:58.944Z,42.08
2017-12-19T02:08:33.385Z,39.22
2017-12-19T02:09:07.144Z,41.70
2017-12-19T02:09:41.584Z,40.17
2017-12-19T02:10:15.260Z,37.33
2017-12-19T02:10:48.936Z,35.15
2017-12-19T02:11:23.398Z,41.05
2017-12-19T02:11:57.074Z,39.67
2017-12-19T02:12:30.741Z,42.78
2017-12-19T02:13:04.403Z,38.28
2017-12-19T02:13:38.826Z,39.90
2017-12-19T02:14:12.168Z,38.83
2017-12-19T02:14:45.839Z,42.58
2017-12-19T02:15:18.849Z,39.28
2017-12-19T02:15:52.978Z,38.67
2017-12-19T02:16:26.020Z,44.20
2017-12-19T02:16:59.794Z,43.30
2017-12-19T02:17:32.808Z,37.03
2017-12-19T02:18:05.831Z,43.20
2017-12-19T02:18:39.170Z,38.85
2017-12-19T02:19:12.179Z,42.58
2017-12-19T02:19:45.196Z,40.40
2017-12-19T02:20:18.980Z,41.88
2017-12-19T02:20:52.043Z,39.75
2017-12-19T02:21:25.204Z,41.25
2017-12-19T02:21:58.282Z,38.22
2017-12-19T02:22:31.295Z,40.75
2017-12-19T02:23:05.075Z,39.20
2017-12-19T02:23:38.073Z,45.20
2017-12-19T02:24:11.866Z,44.80
2017-12-19T02:24:45.624Z,41.78
2017-12-19T02:25:18.631Z,40.35
2017-12-19T02:25:52.394Z,41.72
2017-12-19T02:26:25.396Z,42.67
2017-12-19T02:26:58.405Z,39.50
2017-12-19T02:27:31.743Z,40.88
2017-12-19T02:28:05.654Z,40.70
2017-12-19T02:28:38.667Z,38.22
2017-12-19T02:29:11.681Z,47.10
2017-12-19T02:29:45.459Z,38.63
2017-12-19T02:30:18.602Z,50.97
2017-12-19T02:30:51.600Z,41.55
2017-12-19T02:31:24.611Z,43.83
2017-12-19T02:31:57.617Z,43.78
2017-12-19T02:32:30.614Z,45.03
2017-12-19T02:33:03.717Z,44.70
2017-12-19T02:33:36.912Z,41.70
2017-12-19T02:34:10.700Z,46.17
2017-12-19T02:34:44.469Z,41.58
2017-12-19T02:35:17.474Z,46.00
2017-12-19T02:35:51.234Z,39.90
2017-12-19T02:36:24.231Z,42.83
2017-12-19T02:36:58.001Z,43.47
2017-12-19T02:37:32.837Z,46.00
2017-12-19T02:38:06.621Z,39.22
2017-12-19T02:38:39.616Z,44.97
2017-12-19T02:39:12.615Z,42.95
2017-12-19T02:39:45.671Z,45.03
2017-12-19T02:40:19.455Z,42.17
2017-12-19T02:40:53.239Z,43.50
2017-12-19T02:41:27.059Z,41.92
2017-12-19T02:42:00.071Z,43.10
2017-12-19T02:42:45.006Z,41.72
2017-12-19T02:43:21.832Z,44.13
2017-12-19T02:43:55.586Z,43.72
2017-12-19T02:44:28.593Z,40.90
2017-12-19T02:45:02.405Z,44.65
2017-12-19T02:45:35.398Z,44.47
2017-12-19T02:46:08.442Z,56.00
2017-12-19T02:46:41.478Z,41.28
2017-12-19T02:47:14.491Z,44.42
2017-12-19T02:47:47.956Z,45.20
2017-12-19T02:48:22.057Z,46.58
2017-12-19T02:48:55.814Z,44.05
2017-12-19T02:49:28.812Z,40.47
2017-12-19T02:50:01.818Z,44.80
2017-12-19T02:50:34.816Z,42.75
2017-12-19T02:51:08.249Z,44.47
2017-12-19T02:51:42.021Z,49.30
2017-12-19T02:52:15.354Z,47.25
2017-12-19T02:52:48.714Z,41.17
2017-12-19T02:53:22.483Z,43.67
2017-12-19T02:53:55.482Z,46.63
2017-12-19T02:54:29.260Z,41.08
2017-12-19T02:55:02.265Z,40.80
2017-12-19T02:55:36.239Z,40.28
2017-12-19T02:56:10.007Z,44.75
2017-12-19T02:56:43.349Z,41.58
2017-12-19T02:57:16.346Z,40.05
2017-12-19T02:57:49.362Z,41.42
2017-12-19T02:58:22.368Z,39.13
2017-12-19T02:58:55.398Z,42.95
2017-12-19T02:59:28.419Z,46.40
2017-12-19T03:00:01.428Z,44.17
2017-12-19T03:00:34.430Z,44.80
2017-12-19T03:01:08.190Z,41.50
2017-12-19T03:01:41.190Z,42.35
2017-12-19T03:02:14.948Z,43.10
2017-12-19T03:02:48.266Z,46.72
2017-12-19T03:03:22.223Z,44.50
2017-12-19T03:03:55.231Z,53.10
2017-12-19T03:04:29.017Z,42.08
2017-12-19T03:05:02.025Z,42.85
2017-12-19T03:05:35.035Z,41.13
2017-12-19T03:06:08.062Z,43.15
2017-12-19T03:06:41.117Z,45.63
2017-12-19T03:07:14.878Z,47.78
2017-12-19T03:07:47.894Z,42.90
2017-12-19T03:08:21.675Z,45.83
2017-12-19T03:08:55.432Z,48.60
2017-12-19T03:09:28.436Z,49.65
2017-12-19T03:10:01.442Z,45.75
2017-12-19T03:10:34.439Z,45.08
2017-12-19T03:11:07.768Z,42.15
2017-12-19T03:11:40.782Z,40.85
2017-12-19T03:12:13.781Z,45.47
2017-12-19T03:12:46.762Z,44.67
2017-12-19T03:13:19.766Z,51.97
2017-12-19T03:13:52.926Z,43.30
2017-12-19T03:14:25.926Z,41.45
2017-12-19T03:14:59.811Z,42.72
2017-12-19T03:15:33.580Z,46.25
2017-12-19T03:16:07.354Z,48.28
2017-12-19T03:16:40.370Z,46.37
2017-12-19T03:17:13.374Z,44.70
2017-12-19T03:17:46.382Z,46.33
2017-12-19T03:18:19.384Z,51.35
2017-12-19T03:18:52.388Z,44.97
2017-12-19T03:19:25.403Z,43.60
2017-12-19T03:19:58.454Z,46.78
2017-12-19T03:20:31.463Z,44.95
2017-12-19T03:21:04.463Z,42.30
2017-12-19T03:21:38.223Z,43.75
2017-12-19T03:22:11.230Z,45.70
2017-12-19T03:22:45.017Z,48.35
2017-12-19T03:23:18.035Z,44.47
2017-12-19T03:23:51.029Z,45.03
2017-12-19T03:24:24.063Z,45.03
2017-12-19T03:24:57.089Z,49.25
2017-12-19T03:25:30.109Z,46.67
2017-12-19T03:26:03.891Z,45.15
2017-12-19T03:26:37.671Z,42.00
2017-12-19T03:27:11.439Z,41.10
2017-12-19T03:27:44.447Z,42.40
2017-12-19T03:28:17.468Z,49.55
2017-12-19T03:28:50.491Z,49.40
2017-12-19T03:29:24.540Z,47.95
2017-12-19T03:29:57.562Z,49.35
2017-12-19T03:30:31.334Z,44.63
2017-12-19T03:31:05.143Z,43.58
2017-12-19T03:31:38.930Z,45.53
2017-12-19T03:32:11.932Z,42.95
2017-12-19T03:32:44.948Z,51.70
2017-12-19T03:33:17.958Z,49.38
2017-12-19T03:33:51.737Z,46.80
2017-12-19T03:34:24.879Z,52.20
2017-12-19T03:34:57.892Z,44.65
2017-12-19T03:35:30.899Z,51.65
2017-12-19T03:36:03.904Z,51.80
2017-12-19T03:36:36.921Z,43.15
2017-12-19T03:37:10.702Z,47.50
2017-12-19T03:37:44.473Z,46.67
2017-12-19T03:38:17.507Z,48.20
2017-12-19T03:38:50.523Z,46.95
2017-12-19T03:39:23.522Z,44.95
2017-12-19T03:39:57.628Z,48.20
2017-12-19T03:40:31.419Z,52.22
2017-12-19T03:41:05.187Z,52.78
2017-12-19T03:41:38.183Z,47.97
2017-12-19T03:42:12.004Z,50.80
2017-12-19T03:42:45.018Z,51.42
2017-12-19T03:43:18.025Z,49.42
2017-12-19T03:43:51.794Z,49.80
2017-12-19T03:44:24.791Z,52.03
2017-12-19T03:44:59.258Z,47.22
2017-12-19T03:45:32.273Z,47.90
2017-12-19T03:46:05.287Z,46.58
2017-12-19T03:46:38.319Z,47.55
2017-12-19T03:47:11.331Z,50.38
2017-12-19T03:47:44.343Z,49.67
2017-12-19T03:48:17.339Z,52.83
2017-12-19T03:48:50.330Z,51.40
2017-12-19T03:49:24.117Z,50.38
2017-12-19T03:49:57.899Z,48.85
2017-12-19T03:50:31.677Z,45.90
2017-12-19T03:51:04.683Z,52.17
2017-12-19T03:51:37.694Z,51.85
2017-12-19T03:52:10.706Z,50.40
2017-12-19T03:52:43.719Z,53.38
2017-12-19T03:53:16.747Z,51.45
2017-12-19T03:53:49.761Z,48.17
2017-12-19T03:54:22.773Z,54.05
2017-12-19T03:54:55.778Z,56.65
2017-12-19T03:55:29.583Z,49.35
2017-12-19T03:56:03.367Z,47.88
2017-12-19T03:56:37.135Z,50.12
2017-12-19T03:57:10.170Z,51.20
2017-12-19T03:57:43.212Z,55.38
2017-12-19T03:58:16.988Z,53.83
2017-12-19T03:58:49.996Z,60.92
2017-12-19T03:59:23.001Z,50.10
2017-12-19T03:59:56.017Z,52.40
2017-12-19T04:00:29.013Z,55.20
2017-12-19T04:01:03.070Z,51.50
2017-12-19T04:01:36.074Z,54.10
2017-12-19T04:02:09.963Z,57.90
2017-12-19T04:02:43.739Z,50.85
2017-12-19T04:03:16.761Z,48.17
2017-12-19T04:03:49.779Z,51.50
2017-12-19T04:04:22.790Z,55.47
2017-12-19T04:04:55.811Z,49.95
2017-12-19T04:05:28.811Z,50.42
2017-12-19T04:06:01.818Z,54.47
2017-12-19T04:06:35.612Z,52.85
2017-12-19T04:07:08.647Z,53.33
2017-12-19T04:07:41.649Z,51.25
2017-12-19T04:08:14.664Z,55.42
2017-12-19T04:08:47.675Z,56.63
2017-12-19T04:09:20.712Z,51.95
2017-12-19T04:09:53.737Z,51.20
2017-12-19T04:10:27.509Z,50.17
2017-12-19T04:11:00.514Z,56.85
2017-12-19T04:11:34.310Z,49.88
2017-12-19T04:12:07.327Z,49.33
2017-12-19T04:12:40.336Z,44.85
2017-12-19T04:13:14.118Z,49.78
2017-12-19T04:13:47.131Z,54.10
2017-12-19T04:14:20.401Z,52.80
2017-12-19T04:14:54.181Z,50.92
2017-12-19T04:15:27.959Z,54.42
2017-12-19T04:16:00.969Z,54.30
2017-12-19T04:16:34.246Z,56.15
2017-12-19T04:17:07.252Z,52.67
2017-12-19T04:17:40.255Z,53.05
2017-12-19T04:18:13.265Z,49.55
2017-12-19T04:18:46.289Z,50.60
2017-12-19T04:19:19.289Z,50.95
2017-12-19T04:19:52.314Z,50.72
2017-12-19T04:20:26.594Z,47.45
2017-12-19T04:21:00.374Z,59.50
2017-12-19T04:21:35.188Z,49.50
2017-12-19T04:22:09.636Z,50.78
2017-12-19T04:22:42.650Z,50.00
2017-12-19T04:23:15.748Z,48.03
2017-12-19T04:23:49.856Z,51.15
2017-12-19T04:24:23.627Z,51.60
2017-12-19T04:24:56.964Z,53.92
2017-12-19T04:25:30.311Z,52.28
2017-12-19T04:26:04.066Z,57.88
2017-12-19T04:26:37.387Z,60.80
2017-12-19T04:27:10.449Z,58.28
2017-12-19T04:27:44.239Z,53.80
2017-12-19T04:28:18.006Z,55.38
2017-12-19T04:28:51.105Z,55.25
2017-12-19T04:29:24.875Z,49.65
2017-12-19T04:29:57.911Z,60.60
2017-12-19T04:30:30.918Z,51.28
2017-12-19T04:31:03.927Z,51.63
2017-12-19T04:31:38.018Z,53.47
2017-12-19T04:32:11.786Z,57.05
2017-12-19T04:32:44.811Z,50.50
2017-12-19T04:33:18.482Z,49.50
2017-12-19T04:33:52.253Z,61.30
2017-12-19T04:34:25.584Z,53.08
2017-12-19T04:34:58.652Z,54.88
2017-12-19T04:35:31.673Z,46.67
2017-12-19T04:36:04.684Z,49.85
2017-12-19T04:36:38.778Z,57.50
2017-12-19T04:37:12.600Z,54.33
2017-12-19T04:37:45.617Z,53.58
2017-12-19T04:38:18.618Z,57.08
2017-12-19T04:38:52.718Z,61.60
2017-12-19T04:39:26.849Z,50.78
2017-12-19T04:39:59.858Z,53.35
2017-12-19T04:40:32.854Z,52.95
2017-12-19T04:41:06.958Z,50.22
2017-12-19T04:41:40.747Z,54.03
2017-12-19T04:42:14.515Z,53.47
2017-12-19T04:42:47.529Z,58.58
2017-12-19T04:43:20.540Z,51.65
2017-12-19T04:43:53.574Z,52.35
2017-12-19T04:44:27.327Z,58.40
2017-12-19T04:45:00.327Z,54.55
2017-12-19T04:45:34.203Z,53.92
2017-12-19T04:46:07.247Z,55.92
2017-12-19T04:46:40.246Z,53.92
2017-12-19T04:47:13.251Z,53.38
2017-12-19T04:47:47.154Z,56.40
2017-12-19T04:48:20.150Z,52.47
2017-12-19T04:48:53.141Z,53.05
2017-12-19T04:49:26.197Z,58.92
2017-12-19T04:49:59.308Z,56.22
2017-12-19T04:50:33.347Z,55.88
2017-12-19T04:51:06.688Z,54.90
2017-12-19T04:51:39.690Z,54.05
2017-12-19T04:52:17.538Z,58.72
2017-12-19T04:52:50.894Z,63.05
2017-12-19T04:53:24.238Z,56.22
2017-12-19T04:53:58.032Z,61.83
2017-12-19T04:54:31.794Z,54.38
2017-12-19T04:55:06.549Z,54.78
2017-12-19T04:55:40.318Z,62.58
2017-12-19T04:56:13.342Z,52.35
2017-12-19T04:56:46.339Z,66.47
2017-12-19T04:57:21.079Z,54.65
2017-12-19T04:57:54.178Z,61.08
2017-12-19T04:58:28.311Z,63.47
2017-12-19T04:59:01.328Z,56.50
2017-12-19T04:59:34.994Z,62.15
2017-12-19T05:00:08.029Z,57.03
2017-12-19T05:00:41.017Z,54.55
2017-12-19T05:01:14.345Z,68.70
2017-12-19T05:01:47.436Z,49.70
2017-12-19T05:02:21.573Z,65.30
2017-12-19T05:02:54.977Z,57.55
2017-12-19T05:03:28.367Z,63.50
2017-12-19T05:04:01.429Z,57.47
2017-12-19T05:04:35.428Z,54.30
2017-12-19T05:05:08.757Z,69.00
2017-12-19T05:05:42.586Z,54.00
2017-12-19T05:06:15.917Z,54.83
2017-12-19T05:06:49.246Z,59.47
2017-12-19T05:07:22.503Z,61.78
2017-12-19T05:07:57.622Z,59.00
2017-12-19T05:08:32.518Z,59.65
2017-12-19T05:09:06.015Z,56.35
2017-12-19T05:09:39.034Z,53.60
2017-12-19T05:10:12.065Z,60.58
2017-12-19T05:10:46.559Z,55.42
2017-12-19T05:11:20.404Z,65.97
2017-12-19T05:11:53.486Z,56.53
2017-12-19T05:12:26.840Z,57.78
2017-12-19T05:13:00.612Z,56.30
2017-12-19T05:13:34.835Z,71.18
2017-12-19T05:14:09.165Z,59.42
2017-12-19T05:14:42.176Z,60.78
2017-12-19T05:15:15.976Z,63.17
2017-12-19T05:15:50.513Z,57.92
2017-12-19T05:16:25.754Z,75.97
2017-12-19T05:16:58.806Z,62.45
2017-12-19T05:17:33.260Z,68.12
2017-12-19T05:18:06.386Z,60.08
2017-12-19T05:18:40.488Z,66.22
2017-12-19T05:19:14.628Z,63.83
2017-12-19T05:19:47.828Z,59.88
2017-12-19T05:20:20.818Z,58.97
2017-12-19T05:20:53.839Z,56.40
2017-12-19T05:21:26.855Z,54.63
2017-12-19T05:21:59.867Z,56.35
2017-12-19T05:22:33.658Z,59.35
2017-12-19T05:23:08.113Z,57.22
2017-12-19T05:23:41.114Z,67.72
2017-12-19T05:24:14.127Z,59.97
2017-12-19T05:24:47.140Z,63.50
2017-12-19T05:25:20.483Z,59.72
2017-12-19T05:25:54.251Z,61.75
2017-12-19T05:26:28.042Z,56.40
2017-12-19T05:27:01.806Z,68.87
2017-12-19T05:27:35.500Z,49.15
2017-12-19T05:28:08.531Z,58.60
2017-12-19T05:28:41.611Z,71.25
2017-12-19T05:29:14.615Z,58.25
2017-12-19T05:29:47.957Z,59.72
2017-12-19T05:30:21.513Z,63.10
2017-12-19T05:30:54.520Z,57.55
2017-12-19T05:31:27.510Z,65.43
2017-12-19T05:32:00.521Z,56.70
2017-12-19T05:32:33.862Z,58.45
2017-12-19T05:33:07.206Z,64.95
2017-12-19T05:33:40.208Z,59.20
2017-12-19T05:34:13.565Z,63.97
2017-12-19T05:34:47.336Z,60.10
2017-12-19T05:35:21.886Z,55.50
2017-12-19T05:35:54.893Z,65.93
2017-12-19T05:36:27.899Z,59.13
2017-12-19T05:37:01.224Z,60.00
2017-12-19T05:37:34.230Z,61.80
2017-12-19T05:38:07.568Z,62.10
2017-12-19T05:38:41.032Z,55.95
2017-12-19T05:39:14.818Z,57.83
2017-12-19T05:39:47.833Z,65.68
2017-12-19T05:40:20.842Z,60.45
2017-12-19T05:40:53.840Z,64.32
2017-12-19T05:41:26.849Z,76.25
2017-12-19T05:41:59.837Z,60.08
2017-12-19T05:42:33.174Z,62.70
2017-12-19T05:43:06.173Z,64.25
2017-12-19T05:43:39.194Z,55.58
2017-12-19T05:44:12.206Z,62.13
2017-12-19T05:44:46.315Z,62.47
2017-12-19T05:45:19.404Z,57.72
2017-12-19T05:45:52.413Z,63.33
2017-12-19T05:46:25.439Z,61.50
2017-12-19T05:46:59.214Z,61.13
2017-12-19T05:47:32.300Z,58.65
2017-12-19T05:48:06.389Z,57.40
2017-12-19T05:48:40.538Z,64.75
2017-12-19T05:49:13.586Z,56.63
2017-12-19T05:49:48.007Z,59.42
2017-12-19T05:50:21.018Z,63.13
2017-12-19T05:50:54.362Z,61.67
2017-12-19T05:51:27.358Z,56.67
2017-12-19T05:52:00.711Z,61.08
2017-12-19T05:52:34.039Z,61.63
2017-12-19T05:53:08.609Z,62.25
2017-12-19T05:53:41.834Z,54.40
2017-12-19T05:54:14.911Z,61.65
2017-12-19T05:54:48.462Z,64.93
2017-12-19T05:55:21.463Z,62.95
2017-12-19T05:55:54.564Z,69.62
2017-12-19T05:56:28.712Z,57.08
2017-12-19T05:57:01.705Z,55.08
2017-12-19T05:57:34.722Z,69.45
2017-12-19T05:58:08.817Z,76.93
2017-12-19T05:58:43.240Z,56.58
2017-12-19T05:59:16.705Z,59.55
2017-12-19T05:59:49.714Z,60.33
2017-12-19T06:00:22.746Z,66.22
2017-12-19T06:00:56.550Z,67.62
2017-12-19T06:01:30.658Z,60.97
2017-12-19T06:02:04.444Z,62.58
2017-12-19T06:02:38.579Z,67.82
2017-12-19T06:03:11.567Z,59.63
2017-12-19T06:03:44.583Z,59.85
2017-12-19T06:04:18.713Z,57.65
2017-12-19T06:04:51.776Z,60.22
2017-12-19T06:05:25.548Z,61.40
2017-12-19T06:05:59.653Z,53.95
2017-12-19T06:06:33.419Z,57.20
2017-12-19T06:07:06.822Z,58.28
2017-12-19T06:07:40.603Z,72.35
2017-12-19T06:08:13.634Z,69.10
2017-12-19T06:08:46.988Z,64.93
2017-12-19T06:09:21.109Z,63.67
2017-12-19T06:09:54.116Z,57.15
2017-12-19T06:10:27.163Z,61.47
2017-12-19T06:11:00.155Z,52.00
2017-12-19T06:11:33.292Z,58.40
2017-12-19T06:12:06.634Z,65.30
2017-12-19T06:12:39.636Z,58.80
2017-12-19T06:13:13.422Z,58.67
2017-12-19T06:13:47.417Z,58.30
2017-12-19T06:14:20.755Z,64.93
2017-12-19T06:14:53.764Z,58.30
2017-12-19T06:15:26.777Z,62.45
2017-12-19T06:15:59.820Z,62.88
2017-12-19T06:16:33.920Z,55.17
2017-12-19T06:17:07.266Z,58.95
2017-12-19T06:17:40.278Z,54.47
2017-12-19T06:18:14.056Z,67.82
2017-12-19T06:18:48.845Z,60.17
2017-12-19T06:19:21.854Z,53.22
2017-12-19T06:19:55.191Z,59.42
2017-12-19T06:20:28.195Z,59.58
2017-12-19T06:21:01.534Z,58.97
2017-12-19T06:21:34.875Z,64.22
2017-12-19T06:22:07.874Z,63.50
2017-12-19T06:22:40.877Z,54.60
2017-12-19T06:23:13.916Z,59.30
2017-12-19T06:23:46.930Z,54.40
2017-12-19T06:24:19.983Z,65.20
2017-12-19T06:24:53.663Z,63.72
2017-12-19T06:25:27.006Z,54.97
2017-12-19T06:26:01.511Z,59.28
2017-12-19T06:26:34.538Z,57.45
2017-12-19T06:27:07.539Z,61.95
2017-12-19T06:27:40.534Z,59.65
2017-12-19T06:28:13.530Z,60.78
2017-12-19T06:28:47.314Z,60.80
2017-12-19T06:29:20.336Z,59.67
2017-12-19T06:29:53.333Z,56.90
2017-12-19T06:30:26.330Z,61.72
2017-12-19T06:30:59.673Z,68.57
2017-12-19T06:31:33.009Z,55.85
2017-12-19T06:32:07.176Z,66.95
2017-12-19T06:32:40.254Z,66.55
2017-12-19T06:33:13.405Z,61.53
2017-12-19T06:33:46.747Z,60.35
2017-12-19T06:34:20.846Z,62.15
2017-12-19T06:34:54.601Z,56.58
2017-12-19T06:35:27.610Z,57.83
2017-12-19T06:36:01.384Z,60.17
2017-12-19T06:36:34.782Z,62.45
2017-12-19T06:37:07.958Z,59.15
2017-12-19T06:37:41.158Z,60.78
2017-12-19T06:38:14.159Z,56.88
2017-12-19T06:38:47.248Z,57.80
2017-12-19T06:39:20.614Z,57.50
2017-12-19T06:39:53.644Z,65.78
2017-12-19T06:40:27.406Z,56.83
2017-12-19T06:41:00.408Z,59.75
2017-12-19T06:41:34.188Z,57.42
2017-12-19T06:42:07.517Z,55.58
2017-12-19T06:42:40.865Z,55.67
2017-12-19T06:43:14.953Z,58.58
2017-12-19T06:43:49.076Z,59.45
2017-12-19T06:44:22.418Z,62.67
2017-12-19T06:44:56.103Z,61.75
2017-12-19T06:45:29.490Z,56.00
2017-12-19T06:46:02.599Z,54.63
2017-12-19T06:46:36.364Z,61.72
2017-12-19T06:47:10.482Z,51.70
2017-12-19T06:47:44.589Z,61.05
2017-12-19T06:48:18.371Z,61.30
2017-12-19T06:48:51.726Z,73.07
2017-12-19T06:49:24.735Z,58.70
2017-12-19T06:49:58.530Z,56.15
2017-12-19T06:50:32.317Z,57.10
2017-12-19T06:51:06.086Z,63.03
2017-12-19T06:51:39.090Z,56.60
2017-12-19T06:52:12.871Z,54.53
2017-12-19T06:52:46.670Z,61.13
2017-12-19T06:53:20.459Z,60.17
2017-12-19T06:53:54.246Z,69.40
2017-12-19T06:54:28.682Z,56.15
2017-12-19T06:55:02.050Z,63.97
2017-12-19T06:55:36.161Z,57.50
2017-12-19T06:56:09.159Z,54.38
2017-12-19T06:56:42.499Z,61.53
2017-12-19T06:57:16.289Z,63.92
2017-12-19T06:57:50.059Z,63.83
2017-12-19T06:58:23.061Z,60.03
2017-12-19T06:58:57.157Z,60.80
2017-12-19T06:59:30.922Z,64.35
2017-12-19T07:00:04.342Z,56.90
2017-12-19T07:00:37.685Z,65.00
2017-12-19T07:01:10.784Z,60.22
2017-12-19T07:01:44.596Z,65.35
2017-12-19T07:02:18.544Z,69.97
2017-12-19T07:02:51.868Z,65.60
2017-12-19T07:03:25.624Z,59.58
2017-12-19T07:03:58.959Z,61.78
2017-12-19T07:04:31.942Z,59.78
2017-12-19T07:05:05.458Z,61.58
2017-12-19T07:05:39.121Z,60.35
2017-12-19T07:06:12.459Z,59.40
2017-12-19T07:06:46.248Z,58.80
2017-12-19T07:07:20.038Z,57.55
2017-12-19T07:07:53.377Z,59.97
2017-12-19T07:08:26.366Z,55.45
2017-12-19T07:09:00.450Z,59.38
2017-12-19T07:09:33.450Z,62.15
2017-12-19T07:10:06.818Z,65.28
2017-12-19T07:10:40.139Z,54.63
2017-12-19T07:11:14.232Z,55.75
2017-12-19T07:11:48.000Z,59.92